Time;durP1;ratioP1;P1;durP2;ratioP2;P2;SDS_P1;SDS_P2;PMS_P1;PMS_P2;Temp;Humidity;BMP_temperature;BMP_pressure;BME280_temperature;BME280_humidity;BME280_pressure;Samples;Min_cycle;Max_cycle;Signal;HPM_P1;HPM_P2
2022/07/11 00:02:26;;;;;;;0.73;0.70;;;13.90;91.30;;;;;;5059038;28;20658;-84
2022/07/11 00:04:53;;;;;;;0.60;0.60;;;13.90;91.50;;;;;;5053491;28;20699;-84
2022/07/11 00:07:20;;;;;;;0.60;0.60;;;13.90;91.20;;;;;;5057690;28;20626;-84
2022/07/11 00:09:49;;;;;;;0.80;0.80;;;14.00;92.20;;;;;;5056591;28;20714;-83
2022/07/11 00:12:20;;;;;;;0.47;0.47;;;13.90;92.80;;;;;;5056990;28;20690;-84
2022/07/11 00:14:48;;;;;;;0.60;0.60;;;13.90;93.20;;;;;;5055949;28;20705;-84
2022/07/11 00:17:15;;;;;;;1.20;0.80;;;13.90;92.70;;;;;;5057863;28;21183;-83
2022/07/11 00:19:43;;;;;;;0.93;0.80;;;13.90;92.90;;;;;;5057469;28;20684;-83
2022/07/11 00:22:12;;;;;;;1.43;0.57;;;14.00;92.50;;;;;;5058721;28;20743;-84
2022/07/11 00:24:40;;;;;;;1.53;0.97;;;14.10;92.60;;;;;;5058407;28;20641;-83
2022/07/11 00:27:08;;;;;;;0.50;0.50;;;14.00;92.70;;;;;;5050859;28;20676;-83
2022/07/11 00:29:37;;;;;;;2.00;0.70;;;14.10;93.20;;;;;;5057799;28;20704;-83
2022/07/11 00:32:06;;;;;;;1.20;1.10;;;14.00;93.20;;;;;;5054886;28;21206;-83
2022/07/11 00:34:33;;;;;;;1.47;1.27;;;14.10;93.40;;;;;;5058143;28;20680;-83
2022/07/11 00:37:02;;;;;;;3.50;0.70;;;14.20;92.80;;;;;;5052306;28;20619;-81
2022/07/11 00:39:30;;;;;;;1.27;0.90;;;14.20;92.90;;;;;;5059420;28;20637;-81
2022/07/11 00:41:57;;;;;;;1.47;0.93;;;14.20;93.00;;;;;;5053855;28;20656;-81
2022/07/11 00:44:27;;;;;;;2.17;0.63;;;14.30;93.40;;;;;;5050024;28;20618;-82
2022/07/11 00:46:56;;;;;;;0.63;0.63;;;14.30;92.80;;;;;;5055478;28;20616;-82
2022/07/11 00:49:24;;;;;;;1.90;0.80;;;14.30;92.50;;;;;;5049704;28;20644;-82
2022/07/11 00:51:51;;;;;;;1.73;0.73;;;14.10;92.80;;;;;;5058220;28;20614;-82
2022/07/11 00:54:21;;;;;;;2.60;1.20;;;14.10;93.00;;;;;;5051943;28;20689;-82
2022/07/11 00:57:01;;;;;;;1.10;0.70;;;14.10;93.40;;;;;;5060271;28;20625;-82
2022/07/11 00:59:30;;;;;;;0.43;0.43;;;14.30;93.40;;;;;;5048313;28;20627;-83
2022/07/11 01:01:57;;;;;;;0.77;0.77;;;14.10;93.10;;;;;;5057554;28;20649;-82
2022/07/11 01:04:24;;;;;;;1.07;0.97;;;14.10;93.70;;;;;;5055084;28;21047;-83
2022/07/11 01:06:51;;;;;;;0.50;0.50;;;13.90;93.50;;;;;;5050715;28;20752;-83
2022/07/11 01:09:18;;;;;;;0.63;0.63;;;13.90;94.00;;;;;;5050850;28;20622;-84
2022/07/11 01:11:45;;;;;;;0.80;0.80;;;13.90;94.30;;;;;;5051166;28;20610;-82
2022/07/11 01:14:13;;;;;;;1.53;1.33;;;13.80;94.30;;;;;;5057096;28;21078;-84
2022/07/11 01:16:41;;;;;;;0.70;0.70;;;13.90;94.30;;;;;;5054066;28;21837;-83
2022/07/11 01:19:09;;;;;;;0.70;0.70;;;13.90;94.50;;;;;;5059246;28;20684;-82
2022/07/11 01:21:39;;;;;;;0.77;0.60;;;14.00;94.60;;;;;;5053816;28;20653;-82
2022/07/11 01:24:10;;;;;;;1.20;0.73;;;14.10;94.70;;;;;;5051378;28;20693;-81
2022/07/11 01:26:37;;;;;;;1.40;0.60;;;13.90;94.40;;;;;;5057561;28;20619;-82
2022/07/11 01:29:09;;;;;;;0.93;0.90;;;13.90;94.20;;;;;;5049989;28;21196;-82
2022/07/11 01:31:40;;;;;;;0.70;0.53;;;14.00;94.60;;;;;;5053992;28;20645;-82
2022/07/11 01:34:08;;;;;;;0.70;0.70;;;14.00;94.60;;;;;;5054191;28;20645;-82
2022/07/11 01:36:35;;;;;;;1.63;1.10;;;14.10;93.90;;;;;;5052769;28;20648;-83
2022/07/11 01:39:03;;;;;;;0.83;0.83;;;14.20;94.20;;;;;;5056437;28;20637;-81
2022/07/11 01:41:32;;;;;;;0.80;0.80;;;14.20;93.60;;;;;;5053713;28;20647;-81
2022/07/11 01:44:01;;;;;;;0.90;0.90;;;14.20;94.30;;;;;;5051648;28;20617;-81
2022/07/11 01:46:29;;;;;;;0.93;0.80;;;14.10;94.90;;;;;;5054560;28;21482;-82
2022/07/11 01:48:56;;;;;;;1.00;0.90;;;14.10;95.00;;;;;;5056055;28;20687;-81
2022/07/11 01:51:24;;;;;;;1.10;0.63;;;14.10;95.10;;;;;;5057257;28;21178;-83
2022/07/11 01:53:52;;;;;;;1.27;0.90;;;14.10;95.00;;;;;;5052475;28;21242;-82
2022/07/11 01:56:19;;;;;;;0.80;0.80;;;14.00;95.20;;;;;;5059194;28;20629;-82
2022/07/11 01:58:48;;;;;;;0.90;0.90;;;14.10;95.30;;;;;;5055094;28;20611;-81
2022/07/11 02:01:14;;;;;;;0.93;0.60;;;14.10;95.40;;;;;;5057051;28;21146;-82
2022/07/11 02:03:42;;;;;;;1.37;1.27;;;14.10;95.40;;;;;;5053028;28;20679;-82
2022/07/11 02:06:09;;;;;;;0.93;0.87;;;14.00;95.50;;;;;;5054283;28;20783;-82
2022/07/11 02:08:36;;;;;;;0.93;0.93;;;14.10;95.50;;;;;;5055601;28;20618;-81
2022/07/11 02:11:03;;;;;;;1.27;0.93;;;14.10;95.80;;;;;;5056762;28;20614;-81
2022/07/11 02:13:30;;;;;;;0.47;0.47;;;14.10;95.70;;;;;;5052762;28;20671;-82
2022/07/11 02:15:58;;;;;;;1.03;0.87;;;14.00;95.80;;;;;;5052924;28;20639;-83
2022/07/11 02:18:25;;;;;;;1.40;1.10;;;14.00;95.60;;;;;;5057804;28;20609;-82
2022/07/11 02:20:52;;;;;;;1.10;1.00;;;14.00;95.70;;;;;;5051030;28;20803;-82
2022/07/11 02:23:20;;;;;;;1.10;1.10;;;14.00;96.20;;;;;;5051166;28;20662;-81
2022/07/11 02:25:48;;;;;;;1.03;0.70;;;14.00;96.30;;;;;;5055297;28;20641;-82
2022/07/11 02:28:15;;;;;;;0.90;0.90;;;14.10;96.40;;;;;;5054655;28;21047;-82
2022/07/11 02:30:45;;;;;;;1.10;0.97;;;14.10;96.60;;;;;;5050338;28;21315;-82
2022/07/11 02:33:15;;;;;;;1.37;0.67;;;14.10;96.40;;;;;;5052231;28;20663;-82
2022/07/11 02:35:42;;;;;;;1.33;0.90;;;13.90;96.40;;;;;;5054601;28;20726;-83
2022/07/11 02:38:09;;;;;;;1.00;0.93;;;14.00;96.60;;;;;;5052428;28;20630;-81
2022/07/11 02:40:37;;;;;;;0.80;0.60;;;14.00;96.90;;;;;;5049560;28;21560;-82
2022/07/11 02:43:04;;;;;;;1.07;0.97;;;14.00;97.00;;;;;;5056668;28;20606;-82
2022/07/11 02:45:32;;;;;;;0.93;0.93;;;14.10;97.20;;;;;;5052076;28;20618;-81
2022/07/11 02:47:59;;;;;;;1.00;0.83;;;14.10;97.20;;;;;;5057598;28;20721;-81
2022/07/11 02:50:27;;;;;;;1.77;1.67;;;14.10;97.00;;;;;;5050716;28;20644;-83
2022/07/11 02:52:54;;;;;;;0.90;0.90;;;14.10;97.00;;;;;;5050234;28;20689;-82
2022/07/11 02:55:21;;;;;;;1.33;1.13;;;14.20;96.30;;;;;;5059461;28;20630;-81
2022/07/11 02:57:47;;;;;;;1.00;0.90;;;14.20;96.90;;;;;;5052786;28;20714;-82
2022/07/11 03:00:16;;;;;;;1.30;1.20;;;14.20;96.90;;;;;;5057177;28;20630;-82
2022/07/11 03:02:44;;;;;;;1.43;1.03;;;14.10;97.00;;;;;;5058931;28;21079;-81
2022/07/11 03:05:12;;;;;;;1.37;1.27;;;14.20;97.50;;;;;;5059553;28;20625;-82
2022/07/11 03:07:41;;;;;;;1.40;1.30;;;14.20;97.60;;;;;;5054383;28;20639;-82
2022/07/11 03:10:08;;;;;;;0.60;0.60;;;14.30;97.00;;;;;;5056185;28;20642;-82
2022/07/11 03:12:35;;;;;;;1.60;1.47;;;14.30;97.50;;;;;;5060105;28;20741;-81
2022/07/11 03:15:02;;;;;;;1.30;1.20;;;14.30;97.50;;;;;;5057486;28;20629;-84
2022/07/11 03:17:29;;;;;;;2.10;0.90;;;14.30;97.80;;;;;;5057092;28;20690;-82
2022/07/11 03:19:56;;;;;;;1.10;1.00;;;14.30;97.80;;;;;;5057634;28;21336;-83
2022/07/11 03:22:23;;;;;;;1.40;1.20;;;14.30;98.10;;;;;;5056728;28;20625;-81
2022/07/11 03:24:51;;;;;;;1.53;1.37;;;14.40;97.70;;;;;;5062288;28;20625;-83
2022/07/11 03:27:19;;;;;;;1.40;1.00;;;14.30;97.90;;;;;;5057801;28;20654;-82
2022/07/11 03:29:46;;;;;;;2.33;0.90;;;14.40;98.20;;;;;;5059668;28;20664;-82
2022/07/11 03:32:12;;;;;;;1.33;0.90;;;14.40;98.00;;;;;;5051467;28;20749;-82
2022/07/11 03:34:45;;;;;;;1.27;1.17;;;14.60;97.70;;;;;;5053516;28;20707;-83
2022/07/11 03:37:26;;;;;;;1.30;1.10;;;14.60;97.90;;;;;;5059063;28;21013;-82
2022/07/11 03:39:55;;;;;;;1.47;1.13;;;14.50;97.90;;;;;;5060535;28;20679;-82
2022/07/11 03:42:22;;;;;;;1.60;1.50;;;14.50;97.80;;;;;;5050132;28;20628;-82
2022/07/11 03:44:49;;;;;;;1.23;1.13;;;14.50;98.10;;;;;;5054428;28;21092;-81
2022/07/11 03:47:15;;;;;;;2.17;1.53;;;14.50;97.40;;;;;;5057640;28;21043;-82
2022/07/11 03:49:42;;;;;;;1.33;1.23;;;14.40;97.10;;;;;;5059779;28;20675;-83
2022/07/11 03:52:09;;;;;;;2.40;1.60;;;14.50;97.10;;;;;;5053342;28;20748;-82
2022/07/11 03:54:36;;;;;;;1.40;1.30;;;14.50;97.10;;;;;;5051228;28;20618;-84
2022/07/11 03:57:26;;;;;;;;;;;;;;;;;;;;;
2022/07/11 03:59:53;;;;;;;1.80;1.37;;;;;;;;;;5047658;28;20657;-81
2022/07/11 04:02:20;;;;;;;1.90;1.20;;;14.60;96.90;;;;;;5061272;28;20678;-82
2022/07/11 04:04:47;;;;;;;1.87;1.67;;;14.70;97.00;;;;;;5050903;28;20697;-83
2022/07/11 04:07:14;;;;;;;1.90;1.40;;;14.60;97.30;;;;;;5058351;28;20666;-81
2022/07/11 04:09:41;;;;;;;1.40;1.30;;;14.70;96.90;;;;;;5056512;28;20633;-81
2022/07/11 04:12:10;;;;;;;3.00;2.00;;;14.60;97.10;;;;;;5058920;28;20669;-82
2022/07/11 04:14:36;;;;;;;1.30;1.20;;;14.80;97.10;;;;;;5059336;28;20621;-85
2022/07/11 04:17:04;;;;;;;1.40;0.97;;;14.70;97.30;;;;;;5057328;28;20721;-82
2022/07/11 04:19:31;;;;;;;1.43;1.17;;;14.80;97.50;;;;;;5052587;28;20625;-82
2022/07/11 04:21:58;;;;;;;2.57;2.07;;;14.80;96.90;;;;;;5053459;28;20640;-82
2022/07/11 04:24:25;;;;;;;1.83;1.60;;;14.70;97.00;;;;;;5057515;28;20652;-82
2022/07/11 04:26:52;;;;;;;0.93;0.90;;;14.70;97.00;;;;;;5059560;28;20964;-83
2022/07/11 04:29:20;;;;;;;2.10;1.17;;;14.60;97.20;;;;;;5054782;28;20668;-82
2022/07/11 04:31:47;;;;;;;2.70;1.90;;;14.60;97.50;;;;;;5058513;28;20722;-82
2022/07/11 04:34:14;;;;;;;2.60;1.43;;;14.70;97.60;;;;;;5056494;28;20663;-82
2022/07/11 04:36:41;;;;;;;2.20;2.10;;;14.80;97.30;;;;;;5053275;28;20653;-82
2022/07/11 04:39:08;;;;;;;1.60;1.30;;;14.80;97.10;;;;;;5058724;28;21179;-81
2022/07/11 04:41:35;;;;;;;1.53;1.43;;;14.90;97.00;;;;;;5054125;28;20713;-84
2022/07/11 04:44:02;;;;;;;1.10;1.00;;;14.90;97.40;;;;;;5052102;28;20645;-82
2022/07/11 04:46:31;;;;;;;1.77;1.67;;;14.90;97.30;;;;;;5059010;28;20668;-84
2022/07/11 04:48:58;;;;;;;1.53;1.43;;;14.90;97.00;;;;;;5056242;28;20638;-82
2022/07/11 04:51:25;;;;;;;3.60;2.30;;;15.00;96.60;;;;;;5049680;28;20716;-82
2022/07/11 04:53:52;;;;;;;2.37;1.60;;;15.10;96.90;;;;;;5055286;28;21215;-81
2022/07/11 04:56:19;;;;;;;1.40;1.30;;;15.10;97.30;;;;;;5054492;28;20630;-82
2022/07/11 04:58:46;;;;;;;2.60;2.07;;;15.00;97.20;;;;;;5059820;28;20630;-81
2022/07/11 05:01:13;;;;;;;1.27;1.00;;;15.00;97.10;;;;;;5056758;28;20706;-84
2022/07/11 05:03:41;;;;;;;1.67;1.57;;;15.10;97.50;;;;;;5052068;28;20729;-82
2022/07/11 05:06:08;;;;;;;1.70;1.43;;;15.10;97.20;;;;;;5049172;28;20726;-82
2022/07/11 05:08:36;;;;;;;1.67;1.57;;;15.20;97.20;;;;;;5049365;28;20733;-82
2022/07/11 05:11:03;;;;;;;1.57;1.47;;;15.20;97.40;;;;;;5060628;28;20659;-83
2022/07/11 05:13:30;;;;;;;1.40;1.30;;;15.20;97.40;;;;;;5049691;28;20761;-82
2022/07/11 05:15:57;;;;;;;1.50;1.40;;;15.20;97.50;;;;;;5048993;28;20704;-82
2022/07/11 05:18:24;;;;;;;1.43;1.30;;;15.20;97.60;;;;;;5065250;28;20633;-81
2022/07/11 05:20:52;;;;;;;1.20;1.20;;;15.30;97.70;;;;;;5068848;28;20723;-82
2022/07/11 05:23:19;;;;;;;1.37;1.27;;;15.40;97.60;;;;;;5050571;28;20642;-81
2022/07/11 05:25:46;;;;;;;1.60;1.50;;;15.60;97.80;;;;;;5048959;28;20606;-82
2022/07/11 05:28:13;;;;;;;2.70;1.80;;;15.70;97.10;;;;;;5049394;28;20654;-81
2022/07/11 05:30:40;;;;;;;2.50;1.20;;;15.60;96.80;;;;;;5052135;28;20626;-81
2022/07/11 05:33:07;;;;;;;1.67;1.57;;;15.60;96.90;;;;;;5058236;28;20669;-81
2022/07/11 05:35:34;;;;;;;2.90;2.37;;;15.60;97.00;;;;;;5054102;28;21084;-82
2022/07/11 05:38:05;;;;;;;1.97;1.70;;;15.80;97.00;;;;;;5069712;28;20687;-82
2022/07/11 05:40:32;;;;;;;1.60;1.50;;;15.90;96.30;;;;;;5052864;28;20622;-82
2022/07/11 05:43:01;;;;;;;1.57;1.47;;;16.60;97.10;;;;;;5049907;28;20629;-81
2022/07/11 05:45:28;;;;;;;1.67;1.57;;;16.00;96.90;;;;;;5046535;28;21167;-83
2022/07/11 05:47:55;;;;;;;2.60;1.43;;;16.10;96.80;;;;;;5047945;28;20598;-83
2022/07/11 05:50:22;;;;;;;2.20;2.00;;;16.20;96.60;;;;;;5049227;28;20618;-84
2022/07/11 05:52:49;;;;;;;2.23;2.00;;;16.10;96.10;;;;;;5049317;28;20708;-83
2022/07/11 05:55:17;;;;;;;2.00;1.77;;;16.10;96.10;;;;;;5048317;28;20684;-83
2022/07/11 05:57:44;;;;;;;2.70;1.83;;;16.30;96.00;;;;;;5049005;28;20613;-83
2022/07/11 06:00:12;;;;;;;2.33;1.83;;;16.30;96.20;;;;;;5048690;28;20614;-83
2022/07/11 06:02:39;;;;;;;2.23;1.90;;;16.30;95.90;;;;;;5049978;28;21177;-83
2022/07/11 06:05:07;;;;;;;1.50;1.40;;;16.40;96.00;;;;;;5049223;28;20629;-82
2022/07/11 06:10:19;;;;;;;1.80;1.70;;;16.40;95.60;;;;;;5058176;28;21226;-83
2022/07/11 06:12:46;;;;;;;1.33;1.17;;;16.40;96.30;;;;;;5046557;28;20646;-83
2022/07/11 06:15:13;;;;;;;1.83;1.60;;;16.40;95.80;;;;;;5054265;28;20626;-83
2022/07/11 06:17:40;;;;;;;1.80;1.70;;;16.50;95.80;;;;;;5068832;28;20612;-83
2022/07/11 06:20:08;;;;;;;1.77;1.40;;;16.50;95.20;;;;;;5050774;28;20704;-83
2022/07/11 06:22:35;;;;;;;1.70;1.60;;;16.50;95.20;;;;;;5051548;28;20679;-83
2022/07/11 06:25:02;;;;;;;1.83;1.70;;;16.60;95.60;;;;;;5047020;28;20632;-83
2022/07/11 06:27:31;;;;;;;1.70;1.60;;;16.60;94.90;;;;;;5050616;28;20631;-83
2022/07/11 06:29:58;;;;;;;2.77;2.00;;;16.60;95.20;;;;;;5059895;28;20671;-83
2022/07/11 06:32:24;;;;;;;1.60;1.50;;;16.80;95.00;;;;;;5050662;28;20644;-82
2022/07/11 06:34:51;;;;;;;2.50;1.90;;;16.70;94.60;;;;;;5050027;28;20614;-83
2022/07/11 06:37:18;;;;;;;2.17;2.00;;;16.70;94.80;;;;;;5045647;28;20616;-82
2022/07/11 06:39:47;;;;;;;2.33;1.73;;;16.70;95.00;;;;;;5048033;28;20703;-83
2022/07/11 06:42:14;;;;;;;1.77;1.67;;;16.70;94.60;;;;;;5054001;28;20621;-82
2022/07/11 06:44:42;;;;;;;2.87;1.07;;;16.80;94.60;;;;;;5051477;28;21404;-83
2022/07/11 06:47:09;;;;;;;1.70;1.40;;;16.80;94.90;;;;;;5047026;28;20693;-83
2022/07/11 06:49:36;;;;;;;2.10;1.53;;;16.90;94.30;;;;;;5048164;28;20629;-83
2022/07/11 06:52:03;;;;;;;1.47;1.30;;;16.70;94.00;;;;;;5050841;28;20625;-83
2022/07/11 06:54:30;;;;;;;1.20;1.10;;;16.80;94.60;;;;;;5068314;28;20617;-83
2022/07/11 06:56:57;;;;;;;2.00;1.80;;;;;;;;;;5051645;28;21349;-84
2022/07/11 06:59:24;;;;;;;1.30;1.20;;;16.90;94.20;;;;;;5048416;28;20715;-84
2022/07/11 07:01:52;;;;;;;1.40;1.10;;;17.00;94.40;;;;;;5048587;28;20658;-84
2022/07/11 07:04:20;;;;;;;1.50;1.40;;;17.00;93.60;;;;;;5050698;28;20622;-83
2022/07/11 07:06:46;;;;;;;1.50;1.40;;;17.10;94.10;;;;;;5041546;28;20632;-84
2022/07/11 07:09:13;;;;;;;1.93;1.33;;;17.20;93.80;;;;;;5049486;28;21204;-84
2022/07/11 07:11:41;;;;;;;1.30;1.20;;;;;;;;;;5069238;28;21040;-84
2022/07/11 07:14:07;;;;;;;1.30;1.20;;;17.40;93.50;;;;;;5032653;28;20687;-84
2022/07/11 07:16:35;;;;;;;1.50;1.40;;;17.40;93.30;;;;;;5064858;28;20674;-84
2022/07/11 07:19:03;;;;;;;1.50;1.37;;;17.50;92.90;;;;;;5048834;28;20764;-83
2022/07/11 07:21:30;;;;;;;2.10;1.53;;;17.50;93.40;;;;;;5057038;28;20637;-83
2022/07/11 07:23:57;;;;;;;1.50;1.40;;;17.50;93.00;;;;;;5061352;28;20665;-84
2022/07/11 07:26:24;;;;;;;2.30;1.20;;;17.80;92.20;;;;;;5068018;28;20621;-84
2022/07/11 07:28:51;;;;;;;1.23;1.00;;;18.00;91.80;;;;;;5066669;28;20720;-84
2022/07/11 07:31:18;;;;;;;1.10;1.00;;;18.10;91.70;;;;;;5068407;28;20652;-84
2022/07/11 07:33:45;;;;;;;1.40;1.30;;;18.30;91.10;;;;;;5056041;28;20681;-84
2022/07/11 07:36:13;;;;;;;2.20;1.30;;;18.40;91.40;;;;;;5047945;28;20705;-83
2022/07/11 07:38:43;;;;;;;0.80;0.77;;;18.40;90.80;;;;;;5053553;28;20656;-84
2022/07/11 07:41:10;;;;;;;1.10;1.00;;;18.50;91.10;;;;;;5054273;28;20633;-84
2022/07/11 07:43:37;;;;;;;1.00;1.00;;;18.70;90.80;;;;;;5055423;28;20642;-84
2022/07/11 07:46:04;;;;;;;0.90;0.87;;;18.80;90.10;;;;;;5047631;28;20618;-84
2022/07/11 07:48:32;;;;;;;1.60;1.37;;;18.80;89.80;;;;;;5051535;28;20630;-83
2022/07/11 07:50:58;;;;;;;1.40;1.30;;;18.90;90.40;;;;;;5031963;28;20677;-84
2022/07/11 07:53:27;;;;;;;1.80;1.70;;;19.00;89.60;;;;;;5043761;28;20780;-84
2022/07/11 07:55:54;;;;;;;1.57;1.20;;;19.20;89.30;;;;;;5046857;28;20818;-84
2022/07/11 07:58:21;;;;;;;1.97;1.47;;;19.10;88.30;;;;;;5045317;28;20637;-84
2022/07/11 08:03:32;;;;;;;1.30;0.87;;;19.20;88.40;;;;;;5059380;28;21631;-84
2022/07/11 08:05:59;;;;;;;1.83;1.40;;;19.20;89.10;;;;;;5045947;28;20618;-84
2022/07/11 08:08:27;;;;;;;1.20;1.20;;;19.30;87.20;;;;;;5051188;28;20635;-84
2022/07/11 08:10:55;;;;;;;1.43;1.27;;;19.50;86.50;;;;;;5050146;28;20625;-84
2022/07/11 08:13:22;;;;;;;1.43;1.00;;;19.60;85.10;;;;;;5050744;28;20646;-84
2022/07/11 08:15:50;;;;;;;1.00;0.90;;;19.60;85.90;;;;;;5049819;28;20621;-83
2022/07/11 08:18:17;;;;;;;2.53;1.17;;;19.70;83.70;;;;;;5048676;28;20729;-84
2022/07/11 08:20:44;;;;;;;1.10;1.00;;;19.90;83.00;;;;;;5049371;28;20676;-84
2022/07/11 08:23:12;;;;;;;1.33;1.23;;;20.00;86.10;;;;;;5052585;28;20625;-84
2022/07/11 08:25:40;;;;;;;1.07;0.83;;;20.10;83.10;;;;;;5049657;28;20618;-84
2022/07/11 08:28:07;;;;;;;0.60;0.60;;;20.00;84.30;;;;;;5047419;28;21413;-84
2022/07/11 08:30:34;;;;;;;1.00;0.90;;;20.00;86.30;;;;;;5050087;28;20963;-84
2022/07/11 08:33:02;;;;;;;1.37;1.27;;;20.30;83.70;;;;;;5048291;28;20650;-84
2022/07/11 08:35:29;;;;;;;1.03;1.00;;;20.10;83.80;;;;;;5050810;28;20633;-84
2022/07/11 08:37:56;;;;;;;1.30;1.20;;;20.10;83.30;;;;;;5049188;28;20713;-84
2022/07/11 08:40:23;;;;;;;0.80;0.80;;;20.00;78.30;;;;;;5048774;28;20629;-84
2022/07/11 08:42:52;;;;;;;0.67;0.67;;;20.00;80.00;;;;;;5047144;28;20691;-84
2022/07/11 08:45:19;;;;;;;0.80;0.80;;;19.80;80.80;;;;;;5049625;28;21691;-85
2022/07/11 08:47:45;;;;;;;1.03;0.97;;;20.20;81.00;;;;;;5047792;28;20614;-84
2022/07/11 08:50:13;;;;;;;0.73;0.73;;;20.50;80.90;;;;;;5050235;28;20634;-84
2022/07/11 08:52:41;;;;;;;1.20;0.90;;;20.80;78.60;;;;;;5049041;28;20622;-85
2022/07/11 08:55:08;;;;;;;0.80;0.80;;;20.90;75.70;;;;;;5048237;28;21179;-84
2022/07/11 08:57:36;;;;;;;1.00;0.93;;;21.30;76.40;;;;;;5048618;28;20626;-84
2022/07/11 09:00:07;;;;;;;1.03;1.03;;;21.20;75.00;;;;;;5044424;28;20618;-85
2022/07/11 09:02:34;;;;;;;1.13;1.03;;;21.20;75.50;;;;;;5059704;28;20615;-84
2022/07/11 09:05:03;;;;;;;0.87;0.87;;;21.10;74.90;;;;;;5050422;28;20659;-85
2022/07/11 09:07:30;;;;;;;0.97;0.97;;;21.20;74.90;;;;;;5035350;28;21200;-84
2022/07/11 09:09:57;;;;;;;0.67;0.67;;;21.40;75.70;;;;;;5051138;28;20630;-84
2022/07/11 09:12:24;;;;;;;0.53;0.50;;;21.60;72.40;;;;;;5058108;28;21257;-83
2022/07/11 09:14:52;;;;;;;0.57;0.57;;;21.60;68.10;;;;;;5049573;28;20766;-84
2022/07/11 09:17:27;;;;;;;0.50;0.50;;;21.90;69.30;;;;;;5058145;28;20625;-86
2022/07/11 09:19:54;;;;;;;1.17;0.60;;;22.20;69.20;;;;;;5044065;28;20633;-82
2022/07/11 09:27:50;;;;;;;0.50;0.40;;;22.50;69.80;;;;;;5044921;28;20643;-83
2022/07/11 09:30:20;;;;;;;0.77;0.77;;;22.90;70.00;;;;;;5045742;28;20637;-82
2022/07/11 09:32:57;;;;;;;0.60;0.50;;;23.00;67.70;;;;;;5041897;28;20644;-82
2022/07/11 09:35:25;;;;;;;0.60;0.50;;;23.40;66.10;;;;;;5045997;28;20988;-84
2022/07/11 09:37:54;;;;;;;0.80;0.77;;;23.50;64.70;;;;;;5047987;28;20630;-85
2022/07/11 09:40:22;;;;;;;0.70;0.70;;;23.20;66.10;;;;;;5044947;28;20628;-85
2022/07/11 09:42:51;;;;;;;0.60;0.57;;;23.10;66.10;;;;;;5047724;28;20636;-85
2022/07/11 09:45:18;;;;;;;0.87;0.67;;;23.00;63.90;;;;;;5056720;28;20753;-85
2022/07/11 09:47:47;;;;;;;0.77;0.77;;;22.10;66.50;;;;;;5051204;28;20717;-85
2022/07/11 09:50:19;;;;;;;0.80;0.80;;;21.90;67.50;;;;;;5048691;28;20657;-84
2022/07/11 09:52:59;;;;;;;1.00;1.00;;;21.60;69.40;;;;;;5041943;28;21237;-84
2022/07/11 09:55:26;;;;;;;1.00;0.80;;;21.90;69.90;;;;;;5029739;28;21235;-83
2022/07/11 09:57:54;;;;;;;0.67;0.60;;;21.90;68.20;;;;;;5052263;28;20662;-82
2022/07/11 10:00:21;;;;;;;0.63;0.53;;;21.70;70.00;;;;;;5048663;28;21239;-83
2022/07/11 10:02:49;;;;;;;0.80;0.80;;;21.70;72.10;;;;;;5048307;28;20617;-83
2022/07/11 10:05:17;;;;;;;0.67;0.67;;;21.80;72.80;;;;;;5045696;28;20664;-83
2022/07/11 10:07:44;;;;;;;1.03;0.93;;;21.90;71.30;;;;;;5042333;28;20632;-82
2022/07/11 10:10:11;;;;;;;1.30;1.00;;;21.70;70.20;;;;;;5047541;28;20610;-84
2022/07/11 10:12:38;;;;;;;0.83;0.83;;;21.60;71.30;;;;;;5053050;28;20975;-83
2022/07/11 10:15:07;;;;;;;0.90;0.90;;;21.70;73.10;;;;;;5054535;28;20722;-84
2022/07/11 10:17:43;;;;;;;0.70;0.70;;;21.70;72.10;;;;;;5033675;28;20662;-84
2022/07/11 10:20:20;;;;;;;1.20;1.00;;;21.70;72.20;;;;;;5068271;28;20627;-84
2022/07/11 10:22:54;;;;;;;1.07;1.07;;;21.90;71.30;;;;;;5062970;28;20631;-84
2022/07/11 10:25:29;;;;;;;0.90;0.70;;;22.00;70.80;;;;;;5048696;28;20659;-83
2022/07/11 10:28:20;;;;;;;1.10;0.87;;;21.60;71.00;;;;;;5067152;28;20613;-84
2022/07/11 10:30:48;;;;;;;0.70;0.70;;;21.40;71.70;;;;;;5037327;28;20703;-81
2022/07/11 10:33:17;;;;;;;1.00;1.00;;;21.40;71.80;;;;;;5059113;28;20650;-84
2022/07/11 10:35:45;;;;;;;1.20;1.10;;;21.40;72.20;;;;;;5048669;28;20632;-83
2022/07/11 10:38:14;;;;;;;1.00;0.60;;;22.10;73.10;;;;;;5045965;28;21034;-83
2022/07/11 10:40:46;;;;;;;1.00;0.50;;;22.80;68.20;;;;;;5048324;28;21555;-83
2022/07/11 10:43:15;;;;;;;0.80;0.77;;;22.60;65.40;;;;;;5045941;28;20705;-83
2022/07/11 10:45:59;;;;;;;1.07;0.87;;;23.10;67.70;;;;;;5051529;28;20626;-85
2022/07/11 10:48:27;;;;;;;1.03;0.80;;;23.50;64.60;;;;;;5046802;28;20720;-83
2022/07/11 10:51:05;;;;;;;0.90;0.70;;;23.60;62.40;;;;;;5065490;28;21183;-84
2022/07/11 10:53:43;;;;;;;0.90;0.70;;;23.70;64.60;;;;;;5053350;28;20769;-83
2022/07/11 10:56:36;;;;;;;0.70;0.70;;;23.60;64.30;;;;;;5063819;28;20621;-83
2022/07/11 10:59:13;;;;;;;0.57;0.57;;;23.80;61.40;;;;;;5047648;28;20630;-84
2022/07/11 11:02:20;;;;;;;0.80;0.80;;;23.90;63.50;;;;;;5051439;28;20626;-82
2022/07/11 11:04:52;;;;;;;1.90;0.80;;;24.30;61.40;;;;;;5047068;28;20618;-83
2022/07/11 11:07:36;;;;;;;0.73;0.73;;;24.40;64.80;;;;;;5054919;28;20630;-82
2022/07/11 11:10:28;;;;;;;0.63;0.50;;;24.30;62.10;;;;;;5055928;28;20633;-84
2022/07/11 11:13:15;;;;;;;0.60;0.57;;;24.30;61.30;;;;;;5057295;28;20656;-83
2022/07/11 11:15:46;;;;;;;0.80;0.53;;;24.00;63.30;;;;;;5041595;28;20630;-84
2022/07/11 11:18:34;;;;;;;0.80;0.80;;;23.60;62.50;;;;;;5048010;28;20630;-84
2022/07/11 11:21:20;;;;;;;0.67;0.53;;;23.50;64.80;;;;;;5047797;28;21025;-84
2022/07/11 11:24:07;;;;;;;0.63;0.63;;;23.60;62.80;;;;;;5050719;28;21199;-84
2022/07/11 11:26:51;;;;;;;0.60;0.50;;;23.40;62.20;;;;;;5062017;28;20715;-83
2022/07/11 11:29:26;;;;;;;0.97;0.97;;;23.20;60.00;;;;;;5053140;28;20633;-83
2022/07/11 11:31:55;;;;;;;0.93;0.93;;;23.40;62.50;;;;;;5066762;28;20728;-85
2022/07/11 11:34:23;;;;;;;0.57;0.57;;;23.50;63.70;;;;;;5058114;28;20649;-84
2022/07/11 11:36:55;;;;;;;1.00;0.80;;;24.00;60.50;;;;;;5065866;28;20710;-84
2022/07/11 11:39:30;;;;;;;0.57;0.57;;;24.30;60.00;;;;;;5040298;28;20666;-83
2022/07/11 11:42:07;;;;;;;0.80;0.80;;;24.00;61.80;;;;;;5051888;28;20613;-84
2022/07/11 11:44:35;;;;;;;1.07;0.90;;;23.40;61.70;;;;;;5053932;28;21336;-84
2022/07/11 11:47:02;;;;;;;0.80;0.77;;;24.00;63.60;;;;;;5050975;28;20756;-85
2022/07/11 11:49:41;;;;;;;0.70;0.70;;;24.20;60.40;;;;;;5050818;28;21199;-85
2022/07/11 11:52:08;;;;;;;1.17;1.07;;;24.30;62.60;;;;;;5051519;28;21278;-84
2022/07/11 11:54:34;;;;;;;0.90;0.90;;;25.00;59.20;;;;;;5050288;28;20723;-85
2022/07/11 11:57:08;;;;;;;0.80;0.80;;;25.50;59.20;;;;;;5069126;28;20656;-84
2022/07/11 11:59:35;;;;;;;0.80;0.60;;;25.60;58.50;;;;;;5070928;28;20625;-85
2022/07/11 12:02:02;;;;;;;0.67;0.60;;;26.50;57.60;;;;;;5047034;28;20645;-85
2022/07/11 12:04:32;;;;;;;0.50;0.50;;;26.40;57.40;;;;;;5049566;28;21453;-85
2022/07/11 12:07:01;;;;;;;0.70;0.70;;;25.20;57.00;;;;;;5037598;28;21057;-84
2022/07/11 12:09:49;;;;;;;0.80;0.80;;;23.50;60.20;;;;;;5050530;28;20634;-85
2022/07/11 12:15:22;;;;;;;0.63;0.60;;;25.10;61.50;;;;;;5041920;28;20630;-84
2022/07/11 12:17:52;;;;;;;1.20;0.83;;;26.60;58.20;;;;;;5050459;28;20724;-84
2022/07/11 12:20:34;;;;;;;0.60;0.50;;;28.00;57.00;;;;;;5051598;28;20621;-85
2022/07/11 12:23:01;;;;;;;0.90;0.90;;;28.40;53.80;;;;;;5062557;28;21211;-84
2022/07/11 12:25:28;;;;;;;0.80;0.80;;;27.80;54.60;;;;;;5051777;28;20615;-83
2022/07/11 12:27:58;;;;;;;0.77;0.77;;;27.30;55.80;;;;;;5050053;28;20707;-84
2022/07/11 12:30:25;;;;;;;1.27;0.90;;;26.70;58.40;;;;;;5050054;28;20626;-84
2022/07/11 12:33:08;;;;;;;0.80;0.80;;;26.70;57.80;;;;;;5044335;28;21430;-85
2022/07/11 12:35:35;;;;;;;0.87;0.87;;;26.40;57.60;;;;;;5040076;28;20648;-84
2022/07/11 12:38:02;;;;;;;0.87;0.87;;;26.20;57.30;;;;;;5069469;28;20639;-85
2022/07/11 12:40:29;;;;;;;0.83;0.83;;;26.20;57.50;;;;;;5055118;28;20622;-84
2022/07/11 12:42:58;;;;;;;1.30;1.20;;;25.90;58.00;;;;;;5058162;28;20695;-85
2022/07/11 12:45:24;;;;;;;0.90;0.90;;;26.10;58.00;;;;;;5057293;28;20622;-84
2022/07/11 12:47:53;;;;;;;0.73;0.73;;;25.40;58.10;;;;;;5069836;28;20613;-84
2022/07/11 12:50:22;;;;;;;0.83;0.83;;;25.70;57.90;;;;;;5062181;28;21476;-85
2022/07/11 12:52:51;;;;;;;0.97;0.87;;;27.20;57.40;;;;;;5056984;28;20688;-85
2022/07/11 12:55:26;;;;;;;0.83;0.80;;;29.40;55.10;;;;;;5051529;28;20650;-85
2022/07/11 12:58:08;;;;;;;0.70;0.70;;;30.70;53.80;;;;;;5068592;28;20651;-85
2022/07/11 13:00:37;;;;;;;0.77;0.77;;;31.90;51.80;;;;;;5064434;28;20657;-85
2022/07/11 13:03:05;;;;;;;1.30;1.20;;;31.80;49.10;;;;;;5049422;28;20650;-84
2022/07/11 13:05:47;;;;;;;0.70;0.70;;;31.00;49.30;;;;;;5051015;28;20629;-85
2022/07/11 13:11:07;;;;;;;0.83;0.70;;;29.70;51.10;;;;;;5049145;28;20606;-85
2022/07/11 13:13:35;;;;;;;0.90;0.90;;;28.10;50.90;;;;;;5040203;28;20623;-84
2022/07/11 13:16:04;;;;;;;1.20;1.10;;;;;;;;;;5041980;28;20682;-84
2022/07/11 13:18:31;;;;;;;0.80;0.80;;;26.30;52.90;;;;;;5051839;28;20657;-85